Time;durP1;ratioP1;P1;durP2;ratioP2;P2;SDS_P1;SDS_P2;PMS_P1;PMS_P2;Temp;Humidity;BMP_temperature;BMP_pressure;BME280_temperature;BME280_humidity;BME280_pressure;Samples;Min_cycle;Max_cycle;Signal;HPM_P1;HPM_P2
2021/03/08 00:02:02;;;;;;;32.88;22.17;;;4.00;99.90;;;;;;5031393;28;20264;-39
2021/03/08 00:04:29;;;;;;;29.63;20.30;;;3.90;99.90;;;;;;5031238;28;20212;-38
2021/03/08 00:06:57;;;;;;;27.17;20.77;;;3.90;99.90;;;;;;5031261;28;20323;-38
2021/03/08 00:09:24;;;;;;;24.48;18.40;;;3.90;99.90;;;;;;5031213;28;20220;-38
2021/03/08 00:11:51;;;;;;;23.98;18.42;;;3.80;99.90;;;;;;5031162;28;20624;-38
2021/03/08 00:14:18;;;;;;;19.30;16.90;;;3.70;99.90;;;;;;5031312;28;20236;-39
2021/03/08 00:16:45;;;;;;;24.55;18.23;;;3.60;99.90;;;;;;5031296;28;20287;-39
2021/03/08 00:19:12;;;;;;;26.48;18.52;;;3.50;99.90;;;;;;5030977;28;20635;-39
2021/03/08 00:21:39;;;;;;;24.60;18.40;;;3.50;99.90;;;;;;5031125;28;20212;-38
2021/03/08 00:24:07;;;;;;;20.30;17.08;;;3.40;99.90;;;;;;5030970;28;20205;-38
2021/03/08 00:26:34;;;;;;;21.23;17.55;;;3.40;99.90;;;;;;5031015;28;20642;-39
2021/03/08 00:29:14;;;;;;;20.45;17.08;;;3.40;99.90;;;;;;5031291;28;20244;-38
2021/03/08 00:31:41;;;;;;;21.33;17.77;;;3.40;99.90;;;;;;5031041;28;20243;-38
2021/03/08 00:34:08;;;;;;;27.00;17.90;;;3.40;99.90;;;;;;5030993;28;20577;-39
2021/03/08 00:36:35;;;;;;;23.77;17.55;;;3.40;99.90;;;;;;5031020;28;20560;-38
2021/03/08 00:39:02;;;;;;;24.02;18.73;;;3.50;99.90;;;;;;5031259;28;20201;-38
2021/03/08 00:41:30;;;;;;;23.80;18.10;;;3.50;99.90;;;;;;5033703;28;20236;-39
2021/03/08 00:43:57;;;;;;;20.92;17.02;;;3.40;99.90;;;;;;5034512;28;20219;-38
2021/03/08 00:46:24;;;;;;;22.35;17.95;;;3.40;99.90;;;;;;5034440;28;20204;-39
2021/03/08 00:48:51;;;;;;;21.10;18.33;;;3.30;99.90;;;;;;5034328;28;20247;-39
2021/03/08 00:51:18;;;;;;;21.27;17.70;;;3.30;99.90;;;;;;5034279;28;20209;-46
2021/03/08 00:53:45;;;;;;;20.20;17.90;;;3.20;99.90;;;;;;5034254;28;20256;-39
2021/03/08 00:56:12;;;;;;;24.52;18.70;;;3.20;99.90;;;;;;5034347;28;20212;-38
2021/03/08 00:58:40;;;;;;;22.20;17.98;;;3.20;99.90;;;;;;5034190;28;20662;-39
2021/03/08 01:01:07;;;;;;;24.67;17.77;;;3.10;99.90;;;;;;5033923;28;20758;-39
2021/03/08 01:03:34;;;;;;;23.15;17.90;;;3.10;99.90;;;;;;5033749;28;20327;-39
2021/03/08 01:06:01;;;;;;;21.80;18.58;;;3.00;99.90;;;;;;5034079;28;20223;-39
2021/03/08 01:08:29;;;;;;;25.05;18.30;;;3.10;99.90;;;;;;5033858;28;20703;-38
2021/03/08 01:10:57;;;;;;;22.95;18.77;;;3.10;99.90;;;;;;5033908;28;20208;-38
2021/03/08 01:13:25;;;;;;;23.92;17.95;;;3.00;99.90;;;;;;5033890;28;20208;-38
2021/03/08 01:15:52;;;;;;;22.70;19.13;;;3.00;99.90;;;;;;5033838;28;20315;-38
2021/03/08 01:18:20;;;;;;;22.83;18.25;;;2.90;99.90;;;;;;5033770;28;20575;-39
2021/03/08 01:20:48;;;;;;;22.55;19.38;;;2.80;99.90;;;;;;5034063;28;20224;-39
2021/03/08 01:23:15;;;;;;;24.92;18.67;;;2.70;99.90;;;;;;5033592;28;20216;-39
2021/03/08 01:25:42;;;;;;;25.52;19.27;;;2.70;99.90;;;;;;5033832;28;20209;-39
2021/03/08 01:28:10;;;;;;;24.15;17.33;;;2.70;99.90;;;;;;5033805;28;20240;-39
2021/03/08 01:30:39;;;;;;;22.65;17.88;;;2.70;99.90;;;;;;5033496;28;20209;-39
2021/03/08 01:33:08;;;;;;;24.00;19.13;;;2.70;99.90;;;;;;5033515;28;20671;-39
2021/03/08 01:35:36;;;;;;;24.17;19.52;;;2.60;99.90;;;;;;5033805;28;20600;-39
2021/03/08 01:38:04;;;;;;;23.58;18.83;;;2.60;99.90;;;;;;5033583;28;20715;-40
2021/03/08 01:40:35;;;;;;;25.42;19.65;;;2.60;99.90;;;;;;5033632;28;20290;-39
2021/03/08 01:43:02;;;;;;;26.80;19.60;;;2.60;99.90;;;;;;5033449;28;20212;-40
2021/03/08 01:45:29;;;;;;;22.83;17.98;;;2.60;99.90;;;;;;5033398;28;20306;-40
2021/03/08 01:47:56;;;;;;;22.85;19.40;;;2.70;99.90;;;;;;5033268;28;20588;-40
2021/03/08 01:50:30;;;;;;;24.95;18.58;;;2.70;99.90;;;;;;5033276;28;20237;-39
2021/03/08 01:52:57;;;;;;;25.40;18.58;;;2.60;99.90;;;;;;5033274;28;20296;-39
2021/03/08 01:55:25;;;;;;;22.90;18.42;;;2.60;99.90;;;;;;5033087;28;20209;-39
2021/03/08 01:57:53;;;;;;;23.15;18.05;;;2.60;99.90;;;;;;5033015;28;20291;-39
2021/03/08 02:00:22;;;;;;;22.20;18.58;;;2.60;99.90;;;;;;5033282;28;20439;-39
2021/03/08 02:02:50;;;;;;;29.02;19.33;;;2.50;99.90;;;;;;5032898;28;20275;-39
2021/03/08 02:05:20;;;;;;;37.60;27.92;;;2.50;99.90;;;;;;5032914;28;20682;-39
2021/03/08 02:07:48;;;;;;;23.40;19.02;;;2.50;99.90;;;;;;5033050;28;20248;-39
2021/03/08 02:10:16;;;;;;;24.00;18.88;;;2.40;99.90;;;;;;5032848;28;20212;-39
2021/03/08 02:13:10;;;;;;;25.63;18.25;;;2.50;99.90;;;;;;5032646;28;20299;-40
2021/03/08 02:15:48;;;;;;;22.85;18.48;;;2.50;99.90;;;;;;5032694;28;20205;-39
2021/03/08 02:18:29;;;;;;;22.55;18.80;;;2.40;99.90;;;;;;5032704;28;20335;-39
2021/03/08 02:21:17;;;;;;;21.80;17.95;;;2.40;99.90;;;;;;5032630;28;20205;-39
2021/03/08 02:24:26;;;;;;;24.70;20.27;;;2.40;99.90;;;;;;5032831;28;20330;-39
2021/03/08 02:26:56;;;;;;;24.73;19.00;;;2.30;99.90;;;;;;5032591;28;20204;-39
2021/03/08 02:30:03;;;;;;;21.75;17.70;;;2.30;99.90;;;;;;5032672;28;20319;-39
2021/03/08 02:32:35;;;;;;;22.42;17.92;;;2.30;99.90;;;;;;5032730;28;20204;-40
2021/03/08 02:35:08;;;;;;;22.45;18.02;;;2.20;99.90;;;;;;5032560;28;20363;-40
2021/03/08 02:37:41;;;;;;;34.75;23.98;;;2.10;99.90;;;;;;5032568;28;20201;-39
2021/03/08 02:40:14;;;;;;;31.85;21.58;;;2.10;99.90;;;;;;5032723;28;20291;-39
2021/03/08 02:42:45;;;;;;;25.80;19.55;;;2.00;99.90;;;;;;5032367;28;20299;-40
2021/03/08 02:45:16;;;;;;;22.95;18.02;;;1.90;99.90;;;;;;5032380;28;20236;-40
2021/03/08 02:47:48;;;;;;;21.67;18.90;;;1.90;99.90;;;;;;5032111;28;20302;-40
2021/03/08 02:50:17;;;;;;;25.42;18.42;;;1.80;99.90;;;;;;5032473;28;20204;-40
2021/03/08 02:52:51;;;;;;;24.98;19.20;;;1.90;99.90;;;;;;5032350;28;20762;-40
2021/03/08 02:55:19;;;;;;;23.67;17.98;;;1.90;99.90;;;;;;5032239;28;20208;-40
2021/03/08 02:57:47;;;;;;;24.13;19.85;;;1.90;99.90;;;;;;5032055;28;20209;-39
2021/03/08 03:00:15;;;;;;;24.33;18.77;;;1.90;99.90;;;;;;5031999;28;20693;-39
2021/03/08 03:02:46;;;;;;;22.02;17.48;;;1.90;99.90;;;;;;5031490;28;20276;-39
2021/03/08 03:05:16;;;;;;;23.25;16.90;;;1.90;99.90;;;;;;5032136;28;20223;-40
2021/03/08 03:07:47;;;;;;;23.40;18.95;;;1.80;99.90;;;;;;5031733;28;20714;-39
2021/03/08 03:10:15;;;;;;;21.80;17.63;;;1.80;99.90;;;;;;5032052;28;20213;-39
2021/03/08 03:12:46;;;;;;;23.63;18.40;;;1.80;99.90;;;;;;5031858;28;20204;-39
2021/03/08 03:15:16;;;;;;;26.40;19.00;;;1.70;99.90;;;;;;5031917;28;20239;-39
2021/03/08 03:17:44;;;;;;;22.95;18.50;;;1.80;99.90;;;;;;5031882;28;20251;-39
2021/03/08 03:20:14;;;;;;;25.38;19.35;;;1.80;99.90;;;;;;5031727;28;20216;-39
2021/03/08 03:22:45;;;;;;;23.27;18.50;;;1.90;99.90;;;;;;5031895;28;20209;-39
2021/03/08 03:25:15;;;;;;;24.60;19.85;;;1.90;99.90;;;;;;5031723;28;20209;-39
2021/03/08 03:27:44;;;;;;;23.42;19.48;;;2.00;99.90;;;;;;5031767;28;20329;-39
2021/03/08 03:30:12;;;;;;;23.95;18.17;;;2.00;99.90;;;;;;5031638;28;20213;-39
2021/03/08 03:32:41;;;;;;;23.48;18.63;;;2.00;99.90;;;;;;5031542;28;20256;-39
2021/03/08 03:35:11;;;;;;;27.25;19.90;;;2.00;99.90;;;;;;5031622;28;20224;-39
2021/03/08 03:37:39;;;;;;;24.73;18.05;;;2.00;99.90;;;;;;5031714;28;20334;-39
2021/03/08 03:40:08;;;;;;;24.17;18.85;;;2.00;99.90;;;;;;5031560;28;20297;-39
2021/03/08 03:42:36;;;;;;;25.52;20.05;;;2.00;99.90;;;;;;5031570;28;20607;-40
2021/03/08 03:45:06;;;;;;;24.17;19.15;;;2.00;99.90;;;;;;5031353;28;20241;-40
2021/03/08 03:47:34;;;;;;;22.75;18.20;;;1.90;99.90;;;;;;5031208;28;20248;-40
2021/03/08 03:50:01;;;;;;;21.65;18.20;;;1.80;99.90;;;;;;5031393;28;20250;-40
2021/03/08 03:52:29;;;;;;;26.98;18.75;;;1.70;99.90;;;;;;5031187;28;20208;-39
2021/03/08 03:54:56;;;;;;;21.52;17.23;;;1.60;99.90;;;;;;5034698;28;20634;-40
2021/03/08 03:57:25;;;;;;;23.40;19.67;;;1.60;99.90;;;;;;5031330;28;20674;-39
2021/03/08 03:59:56;;;;;;;22.85;18.20;;;1.60;99.90;;;;;;5031314;28;20252;-40
2021/03/08 04:02:30;;;;;;;24.35;18.58;;;1.50;99.90;;;;;;5031505;28;20240;-41
2021/03/08 04:05:00;;;;;;;23.75;18.83;;;1.40;99.90;;;;;;5031231;28;20216;-40
2021/03/08 04:07:31;;;;;;;27.33;19.27;;;1.40;99.90;;;;;;5031478;28;20296;-39
2021/03/08 04:09:59;;;;;;;27.17;20.40;;;1.30;99.90;;;;;;5031256;28;20743;-39
2021/03/08 04:12:29;;;;;;;25.15;19.92;;;1.30;99.90;;;;;;5031168;28;20219;-39
2021/03/08 04:14:59;;;;;;;26.23;20.05;;;1.30;99.90;;;;;;5033321;28;20209;-40
2021/03/08 04:17:29;;;;;;;23.48;19.27;;;1.20;99.90;;;;;;5035156;28;20295;-40
2021/03/08 04:19:58;;;;;;;23.13;18.48;;;1.20;99.90;;;;;;5035306;28;20581;-40
2021/03/08 04:22:26;;;;;;;25.40;18.17;;;1.10;99.90;;;;;;5035133;28;20236;-40
2021/03/08 04:24:57;;;;;;;23.13;17.83;;;1.10;99.90;;;;;;5034873;28;20291;-40
2021/03/08 04:27:25;;;;;;;22.58;18.67;;;1.10;99.90;;;;;;5034968;28;20233;-37
2021/03/08 04:29:53;;;;;;;22.40;17.95;;;1.10;99.90;;;;;;5034658;28;20741;-39
2021/03/08 04:32:22;;;;;;;19.60;16.25;;;1.10;99.90;;;;;;5035047;28;20263;-39
2021/03/08 04:34:50;;;;;;;21.15;17.67;;;1.10;99.90;;;;;;5034794;28;20213;-39
2021/03/08 04:37:18;;;;;;;22.35;17.08;;;1.10;99.90;;;;;;5034811;28;20240;-39
2021/03/08 04:39:46;;;;;;;22.70;18.02;;;1.00;99.90;;;;;;5034644;28;20208;-39
2021/03/08 04:42:15;;;;;;;20.88;16.90;;;1.00;99.90;;;;;;5034565;28;20674;-40
2021/03/08 04:44:45;;;;;;;23.48;18.83;;;0.90;99.90;;;;;;5034536;28;20469;-39
2021/03/08 04:47:17;;;;;;;21.75;16.90;;;0.90;99.90;;;;;;5034748;28;20563;-40
2021/03/08 04:49:46;;;;;;;21.33;16.70;;;0.80;99.90;;;;;;5034401;28;20721;-40
2021/03/08 04:52:14;;;;;;;20.88;17.65;;;0.80;99.90;;;;;;5034616;28;20236;-38
2021/03/08 04:54:44;;;;;;;22.65;16.42;;;0.70;99.90;;;;;;5034480;28;20212;-39
2021/03/08 04:57:15;;;;;;;25.83;18.67;;;0.70;99.90;;;;;;5034484;28;20209;-39
2021/03/08 04:59:42;;;;;;;24.05;16.95;;;0.70;99.90;;;;;;5034443;28;20212;-40
2021/03/08 05:02:12;;;;;;;22.10;17.35;;;0.70;99.90;;;;;;5034002;28;20240;-40
2021/03/08 05:04:42;;;;;;;22.02;17.73;;;0.70;99.90;;;;;;5033979;28;20618;-40
2021/03/08 05:07:12;;;;;;;21.92;17.30;;;0.70;99.90;;;;;;5033880;28;20288;-38
2021/03/08 05:09:39;;;;;;;18.70;16.52;;;0.60;99.90;;;;;;5033831;28;20684;-40
2021/03/08 05:12:09;;;;;;;21.52;16.42;;;0.60;99.90;;;;;;5034019;28;20248;-40
2021/03/08 05:14:38;;;;;;;18.55;15.38;;;0.60;99.90;;;;;;5033822;28;20212;-40
2021/03/08 05:17:06;;;;;;;21.60;17.42;;;0.60;99.90;;;;;;5033977;28;20578;-40
2021/03/08 05:19:35;;;;;;;22.30;17.40;;;0.60;99.90;;;;;;5034017;28;20201;-40
2021/03/08 05:22:02;;;;;;;22.98;18.15;;;0.60;99.90;;;;;;5033910;28;20295;-40
2021/03/08 05:24:30;;;;;;;21.20;17.13;;;0.60;99.90;;;;;;5033823;28;20633;-41
2021/03/08 05:26:57;;;;;;;24.35;16.63;;;0.60;99.90;;;;;;5032871;28;20263;-41
2021/03/08 05:29:25;;;;;;;23.23;18.52;;;0.60;99.90;;;;;;5033380;28;20578;-41
2021/03/08 05:31:53;;;;;;;19.38;16.02;;;0.60;99.90;;;;;;5033543;28;20314;-41
2021/03/08 05:34:25;;;;;;;19.15;15.23;;;0.60;99.90;;;;;;5034948;28;20641;-41
2021/03/08 05:36:52;;;;;;;22.45;18.25;;;0.50;99.90;;;;;;5034149;28;20223;-41
2021/03/08 05:39:20;;;;;;;18.77;16.58;;;0.40;99.90;;;;;;5033953;28;20304;-40
2021/03/08 05:42:08;;;;;;;21.83;17.30;;;0.40;99.90;;;;;;5034254;28;20298;-40
2021/03/08 05:44:36;;;;;;;19.67;15.48;;;0.30;99.90;;;;;;5034599;28;20236;-40
2021/03/08 05:47:34;;;;;;;22.15;16.48;;;0.30;99.90;;;;;;5034522;28;20436;-40
2021/03/08 05:50:41;;;;;;;23.05;17.42;;;0.20;99.90;;;;;;5033483;28;20319;-40
2021/03/08 05:53:26;;;;;;;22.25;18.77;;;0.20;99.90;;;;;;5008068;28;20217;-40
2021/03/08 05:56:17;;;;;;;24.85;17.15;;;0.20;99.90;;;;;;5033138;28;20726;-40
2021/03/08 05:59:20;;;;;;;21.20;17.15;;;0.20;99.90;;;;;;5033194;28;20292;-40
2021/03/08 06:02:05;;;;;;;22.33;17.38;;;0.20;99.90;;;;;;5014189;28;20276;-40
2021/03/08 06:05:00;;;;;;;22.20;17.25;;;0.20;99.90;;;;;;5033493;28;20516;-40
2021/03/08 06:08:03;;;;;;;21.20;16.27;;;0.20;99.90;;;;;;5033108;28;20240;-40
2021/03/08 06:10:33;;;;;;;21.58;17.27;;;0.20;99.90;;;;;;5033764;28;20207;-40
2021/03/08 06:13:09;;;;;;;30.02;22.33;;;0.10;99.90;;;;;;5033615;28;20236;-40
2021/03/08 06:15:37;;;;;;;64.82;42.35;;;0.10;99.90;;;;;;5033851;28;20247;-40
2021/03/08 06:18:07;;;;;;;105.00;66.40;;;0.10;99.90;;;;;;5033420;28;20243;-41
2021/03/08 06:20:36;;;;;;;50.22;38.00;;;0.10;99.90;;;;;;5032690;28;20571;-40
2021/03/08 06:23:03;;;;;;;65.43;47.97;;;0.10;99.90;;;;;;5032852;28;20303;-41
2021/03/08 06:25:30;;;;;;;87.25;63.50;;;0.20;99.90;;;;;;5032856;28;20236;-41
2021/03/08 06:27:57;;;;;;;33.08;25.92;;;0.20;99.90;;;;;;5032422;28;20209;-41
2021/03/08 06:30:25;;;;;;;28.38;23.15;;;0.20;99.90;;;;;;5032533;28;20282;-41
2021/03/08 06:32:52;;;;;;;26.10;21.67;;;0.30;99.90;;;;;;5032444;28;20219;-42
2021/03/08 06:35:20;;;;;;;24.70;20.52;;;0.30;99.90;;;;;;5032622;28;20208;-41
2021/03/08 06:37:48;;;;;;;22.42;19.67;;;0.40;99.90;;;;;;5031747;28;20205;-41
2021/03/08 06:40:16;;;;;;;27.98;20.25;;;0.40;99.90;;;;;;5032486;28;20653;-42
2021/03/08 06:42:43;;;;;;;26.73;19.60;;;0.50;99.90;;;;;;5032388;28;20213;-41
2021/03/08 06:45:11;;;;;;;25.77;20.38;;;0.60;99.90;;;;;;5032196;28;20295;-42
2021/03/08 06:47:39;;;;;;;26.00;20.85;;;0.70;99.90;;;;;;5032404;28;20299;-42
2021/03/08 06:50:07;;;;;;;24.38;19.38;;;0.70;99.90;;;;;;5032341;28;20233;-44
2021/03/08 06:52:40;;;;;;;23.55;19.30;;;0.80;99.90;;;;;;5032247;28;20296;-42
2021/03/08 06:55:10;;;;;;;23.30;18.85;;;0.80;99.90;;;;;;5032229;28;20241;-42
2021/03/08 06:57:38;;;;;;;23.00;17.98;;;0.80;99.90;;;;;;5032132;28;20668;-40
2021/03/08 07:00:08;;;;;;;22.30;17.52;;;0.80;99.90;;;;;;5032374;28;20292;-40
2021/03/08 07:02:37;;;;;;;19.92;16.73;;;0.80;99.90;;;;;;5032158;28;20264;-41
2021/03/08 07:05:06;;;;;;;21.20;16.42;;;0.90;99.90;;;;;;5032026;28;20550;-39
2021/03/08 07:07:53;;;;;;;21.90;18.10;;;0.90;99.90;;;;;;5032172;28;20315;-39
2021/03/08 07:10:36;;;;;;;20.55;16.42;;;1.00;99.90;;;;;;5031916;28;20248;-39
2021/03/08 07:13:05;;;;;;;19.55;16.00;;;1.20;99.90;;;;;;5030113;28;20213;-39
2021/03/08 07:15:32;;;;;;;20.52;18.10;;;1.30;99.90;;;;;;5031980;28;20314;-39
2021/03/08 07:18:00;;;;;;;25.40;18.67;;;1.40;99.90;;;;;;5032156;28;20291;-39
2021/03/08 07:20:28;;;;;;;20.90;18.15;;;1.50;99.90;;;;;;5032048;28;20208;-40
2021/03/08 07:22:56;;;;;;;22.23;17.60;;;1.60;99.90;;;;;;5042257;28;20209;-41
2021/03/08 07:25:24;;;;;;;22.27;17.90;;;1.60;99.90;;;;;;5031901;28;20588;-41
2021/03/08 07:27:54;;;;;;;21.05;18.75;;;1.70;99.90;;;;;;5031930;28;20213;-40
2021/03/08 07:30:23;;;;;;;22.17;18.58;;;1.80;99.90;;;;;;5031630;28;20205;-41
2021/03/08 07:32:58;;;;;;;20.23;17.20;;;1.90;99.90;;;;;;5031672;28;20235;-41
2021/03/08 07:35:36;;;;;;;20.05;16.83;;;1.90;99.90;;;;;;5031508;28;20208;-42
2021/03/08 07:38:04;;;;;;;23.35;17.63;;;2.00;99.90;;;;;;5031624;28;20635;-40
2021/03/08 07:40:32;;;;;;;24.10;17.38;;;2.20;99.90;;;;;;5031643;28;20266;-40
2021/03/08 07:43:00;;;;;;;22.48;17.30;;;2.30;99.90;;;;;;5031661;28;20376;-40
2021/03/08 07:45:41;;;;;;;20.55;18.25;;;2.40;99.90;;;;;;5031531;28;20296;-40
2021/03/08 07:48:10;;;;;;;21.70;16.42;;;2.50;99.90;;;;;;5031686;28;20237;-41
2021/03/08 07:50:38;;;;;;;57.97;42.70;;;2.70;99.90;;;;;;5034912;28;20227;-40
2021/03/08 07:53:27;;;;;;;21.42;19.10;;;2.80;99.90;;;;;;5035518;28;20558;-41
2021/03/08 07:55:56;;;;;;;21.63;16.48;;;3.00;99.90;;;;;;5035304;28;20679;-41
2021/03/08 07:58:25;;;;;;;22.85;17.17;;;3.10;99.90;;;;;;5035548;28;20255;-40
2021/03/08 08:00:52;;;;;;;18.58;15.68;;;3.30;99.90;;;;;;5035441;28;20212;-39
2021/03/08 08:03:21;;;;;;;23.70;16.83;;;3.40;99.60;;;;;;5035258;28;20699;-40
2021/03/08 08:05:56;;;;;;;17.15;15.23;;;3.60;99.30;;;;;;5035473;28;20212;-39
2021/03/08 08:08:25;;;;;;;22.15;18.48;;;3.70;99.00;;;;;;5035335;28;20326;-40
2021/03/08 08:10:54;;;;;;;21.33;15.80;;;3.80;98.60;;;;;;5035123;28;20304;-39
2021/03/08 08:13:30;;;;;;;17.10;14.50;;;3.90;98.50;;;;;;5035451;28;20278;-40
2021/03/08 08:16:01;;;;;;;17.17;15.07;;;3.90;98.20;;;;;;5035353;28;20208;-40
2021/03/08 08:18:29;;;;;;;16.70;14.82;;;4.00;98.20;;;;;;5035084;28;20200;-40
2021/03/08 08:20:57;;;;;;;17.02;13.35;;;4.00;98.00;;;;;;5035021;28;20232;-40
2021/03/08 08:23:30;;;;;;;17.15;15.38;;;4.10;97.80;;;;;;5035208;28;20209;-39
2021/03/08 08:25:58;;;;;;;16.08;14.32;;;4.10;97.60;;;;;;5035352;28;20213;-39
2021/03/08 08:28:28;;;;;;;19.10;16.83;;;4.10;97.70;;;;;;5034838;28;20228;-40
2021/03/08 08:30:59;;;;;;;26.30;23.58;;;4.20;97.70;;;;;;5034849;28;20312;-39
2021/03/08 08:33:30;;;;;;;17.25;15.40;;;4.30;97.70;;;;;;5035511;28;20212;-40
2021/03/08 08:36:12;;;;;;;23.48;17.17;;;4.40;97.30;;;;;;5035428;28;20216;-39
2021/03/08 08:38:40;;;;;;;23.15;18.35;;;4.50;97.00;;;;;;5037120;28;20607;-39
2021/03/08 08:41:21;;;;;;;18.92;15.23;;;4.60;96.90;;;;;;5037311;28;20628;-40
2021/03/08 08:44:38;;;;;;;17.83;15.07;;;4.70;96.70;;;;;;5036022;28;20605;-39
2021/03/08 08:47:25;;;;;;;26.45;16.17;;;4.80;96.40;;;;;;5036984;28;20259;-40
2021/03/08 08:49:54;;;;;;;21.52;16.77;;;4.90;96.50;;;;;;5034381;28;20568;-40
2021/03/08 08:52:47;;;;;;;28.30;17.48;;;4.90;96.40;;;;;;5034416;28;20698;-40
2021/03/08 08:55:15;;;;;;;17.95;15.77;;;5.00;96.40;;;;;;5036118;28;20288;-40
2021/03/08 08:58:17;;;;;;;19.20;16.33;;;5.00;96.40;;;;;;5036272;28;20212;-39
2021/03/08 09:04:12;;;;;;;18.52;15.88;;;5.20;96.50;;;;;;5036403;28;20212;-40
2021/03/08 09:06:51;;;;;;;19.83;15.77;;;5.10;96.40;;;;;;5035966;28;20236;-39
2021/03/08 09:09:22;;;;;;;19.75;16.63;;;5.10;96.60;;;;;;5038252;28;20228;-40
2021/03/08 09:11:52;;;;;;;23.60;18.60;;;5.10;96.60;;;;;;5037096;28;20212;-48
2021/03/08 09:14:29;;;;;;;17.95;16.02;;;5.10;96.50;;;;;;5037084;28;20675;-39
2021/03/08 09:17:17;;;;;;;20.60;16.45;;;5.10;96.70;;;;;;5035826;28;20209;-41
2021/03/08 09:19:49;;;;;;;23.48;16.45;;;5.20;96.70;;;;;;5038847;28;20201;-40
2021/03/08 09:22:42;;;;;;;21.33;16.40;;;5.20;96.60;;;;;;5036697;28;20638;-40
2021/03/08 09:25:29;;;;;;;17.50;15.70;;;5.20;96.60;;;;;;5037594;28;20554;-42
2021/03/08 09:28:09;;;;;;;18.20;16.27;;;5.10;96.80;;;;;;5034340;28;20209;-39
2021/03/08 09:30:40;;;;;;;19.58;15.82;;;5.10;97.40;;;;;;5034479;28;20264;-41
2021/03/08 09:33:09;;;;;;;21.55;15.82;;;5.10;97.00;;;;;;5033755;28;20242;-40
2021/03/08 09:35:38;;;;;;;18.30;15.68;;;5.20;97.00;;;;;;5033736;28;20212;-41
2021/03/08 09:38:08;;;;;;;17.30;15.50;;;5.20;96.90;;;;;;5033608;28;20359;-40
2021/03/08 09:40:36;;;;;;;19.63;15.52;;;5.40;96.80;;;;;;5033572;28;20641;-39
2021/03/08 09:43:21;;;;;;;20.25;16.52;;;5.40;96.50;;;;;;5032994;28;20212;-39
2021/03/08 09:45:56;;;;;;;20.58;18.38;;;5.50;96.60;;;;;;5033651;28;20205;-39
2021/03/08 09:48:24;;;;;;;15.43;13.93;;;5.50;96.40;;;;;;5033383;28;20212;-39
2021/03/08 09:50:52;;;;;;;21.13;18.92;;;5.60;96.40;;;;;;5033312;28;20209;-40
2021/03/08 09:53:22;;;;;;;14.95;13.38;;;5.70;96.10;;;;;;5033651;28;20220;-40
2021/03/08 09:55:50;;;;;;;15.75;14.13;;;5.90;95.70;;;;;;5033224;28;20244;-39
2021/03/08 09:58:18;;;;;;;15.73;14.02;;;6.00;95.50;;;;;;5033143;28;20300;-39
2021/03/08 10:00:47;;;;;;;15.38;13.77;;;6.00;95.20;;;;;;5033332;28;20259;-40
2021/03/08 10:03:15;;;;;;;16.35;12.70;;;6.00;95.20;;;;;;5033133;28;20248;-39
2021/03/08 10:05:45;;;;;;;14.35;13.02;;;6.10;95.20;;;;;;5033381;28;20333;-40
2021/03/08 10:08:13;;;;;;;17.10;13.38;;;6.00;94.80;;;;;;5033097;28;20247;-39
2021/03/08 10:10:43;;;;;;;16.00;14.40;;;5.80;94.60;;;;;;5032937;28;20316;-38
2021/03/08 10:13:10;;;;;;;16.42;12.65;;;5.80;95.10;;;;;;5033701;28;20232;-40
2021/03/08 10:15:40;;;;;;;14.00;12.60;;;5.90;94.90;;;;;;5033941;28;20300;-40
2021/03/08 10:18:07;;;;;;;14.43;12.93;;;6.00;94.50;;;;;;5032965;28;20279;-39
2021/03/08 10:20:44;;;;;;;13.35;11.98;;;6.20;94.10;;;;;;5032993;28;20237;-39
2021/03/08 10:23:15;;;;;;;14.23;12.80;;;6.30;93.10;;;;;;5033066;28;20675;-39
2021/03/08 10:25:43;;;;;;;13.80;12.45;;;6.30;93.20;;;;;;5032989;28;20363;-39
2021/03/08 10:28:10;;;;;;;12.90;11.57;;;6.40;93.20;;;;;;5033880;28;20407;-39
2021/03/08 10:30:37;;;;;;;12.52;11.32;;;6.40;92.90;;;;;;5033051;28;20286;-39
2021/03/08 10:33:06;;;;;;;15.57;11.98;;;6.50;92.60;;;;;;5033373;28;20304;-39
2021/03/08 10:35:37;;;;;;;13.48;12.07;;;6.50;92.30;;;;;;5033543;28;20213;-39
2021/03/08 10:38:28;;;;;;;14.80;11.88;;;6.60;91.80;;;;;;5033455;28;20216;-40
2021/03/08 10:40:59;;;;;;;12.65;11.32;;;6.80;91.60;;;;;;5032176;28;20212;-39
2021/03/08 10:43:28;;;;;;;12.90;11.60;;;6.90;91.30;;;;;;5032435;28;20263;-39
2021/03/08 10:45:59;;;;;;;12.30;11.07;;;7.00;91.10;;;;;;5033885;28;20287;-39
2021/03/08 10:48:27;;;;;;;11.48;10.05;;;7.00;90.70;;;;;;5033067;28;20303;-39
2021/03/08 10:50:56;;;;;;;12.32;11.05;;;7.00;90.30;;;;;;5032657;28;20209;-39
2021/03/08 10:53:56;;;;;;;14.68;11.27;;;7.00;90.20;;;;;;5032546;28;20208;-39
2021/03/08 10:56:23;;;;;;;11.80;10.65;;;7.10;90.00;;;;;;5032323;28;20255;-39
2021/03/08 10:58:51;;;;;;;11.65;10.30;;;7.10;90.10;;;;;;5032441;28;20733;-38
2021/03/08 11:01:18;;;;;;;11.23;10.13;;;7.20;89.90;;;;;;5032074;28;20290;-38
2021/03/08 11:03:46;;;;;;;11.95;10.73;;;7.40;89.00;;;;;;5032073;28;20236;-39
2021/03/08 11:06:14;;;;;;;11.75;10.55;;;7.40;88.20;;;;;;5032246;28;20700;-38
2021/03/08 11:08:54;;;;;;;11.85;10.65;;;7.50;87.50;;;;;;5031750;28;20205;-38
2021/03/08 11:11:24;;;;;;;11.82;10.57;;;7.60;87.00;;;;;;5032148;28;20270;-38
2021/03/08 11:13:51;;;;;;;11.88;10.68;;;7.70;86.30;;;;;;5031857;28;20209;-39
2021/03/08 11:16:18;;;;;;;11.70;10.48;;;7.70;85.80;;;;;;5031790;28;20262;-38
2021/03/08 11:18:45;;;;;;;12.85;11.52;;;7.80;85.40;;;;;;5031902;28;20220;-39
2021/03/08 11:21:26;;;;;;;12.40;10.68;;;7.90;84.60;;;;;;5031883;28;20625;-38
2021/03/08 11:23:54;;;;;;;19.98;13.38;;;7.90;84.70;;;;;;5031511;28;20219;-38
2021/03/08 11:26:22;;;;;;;13.65;10.75;;;8.00;84.00;;;;;;5031909;28;20699;-38
2021/03/08 11:28:49;;;;;;;10.48;9.52;;;8.00;83.80;;;;;;5031477;28;20296;-38
2021/03/08 11:31:23;;;;;;;11.50;10.45;;;8.00;83.50;;;;;;5032094;28;20204;-38
2021/03/08 11:33:52;;;;;;;11.48;10.25;;;8.00;83.20;;;;;;5032004;28;20230;-38
2021/03/08 11:36:31;;;;;;;12.10;10.95;;;8.10;83.10;;;;;;5031715;28;20209;-39
2021/03/08 11:39:06;;;;;;;10.25;9.35;;;8.20;82.30;;;;;;5031711;28;20240;-38
2021/03/08 11:41:34;;;;;;;11.35;10.15;;;8.40;81.40;;;;;;5032256;28;20576;-38
2021/03/08 11:44:02;;;;;;;12.73;11.20;;;8.40;80.70;;;;;;5031797;28;20587;-38
2021/03/08 11:46:29;;;;;;;10.35;9.27;;;8.30;80.70;;;;;;5031712;28;20208;-38
2021/03/08 11:49:01;;;;;;;11.38;10.27;;;8.30;80.80;;;;;;5031557;28;20205;-38
2021/03/08 11:51:29;;;;;;;9.85;9.00;;;8.30;80.20;;;;;;5031393;28;20255;-38
2021/03/08 11:53:56;;;;;;;10.63;9.63;;;8.30;79.40;;;;;;5031742;28;20209;-38
2021/03/08 11:56:25;;;;;;;10.48;9.40;;;8.30;79.20;;;;;;5031751;28;20623;-39
2021/03/08 11:58:54;;;;;;;11.35;10.25;;;8.20;78.90;;;;;;5031541;28;20208;-39
2021/03/08 12:01:21;;;;;;;11.90;10.65;;;8.20;78.90;;;;;;5031434;28;20303;-39
2021/03/08 12:03:48;;;;;;;9.35;8.45;;;8.10;77.40;;;;;;5031205;28;20240;-39
2021/03/08 12:06:15;;;;;;;9.57;8.77;;;8.20;77.70;;;;;;5031278;28;20742;-40
2021/03/08 12:08:46;;;;;;;9.65;8.75;;;8.30;76.80;;;;;;5031772;28;20213;-39
2021/03/08 12:11:14;;;;;;;10.82;9.45;;;8.30;75.00;;;;;;5031560;28;20205;-40
2021/03/08 12:13:41;;;;;;;11.70;10.60;;;8.40;75.80;;;;;;5031599;28;20263;-39
2021/03/08 12:16:09;;;;;;;13.65;9.43;;;8.50;74.30;;;;;;5031666;28;20211;-40
2021/03/08 12:18:36;;;;;;;9.55;8.65;;;8.40;72.70;;;;;;5031435;28;20315;-40
2021/03/08 12:21:04;;;;;;;9.05;8.25;;;8.40;73.80;;;;;;5031546;28;20201;-42
2021/03/08 12:23:32;;;;;;;10.30;9.00;;;8.40;73.60;;;;;;5031194;28;20664;-39
2021/03/08 12:25:59;;;;;;;9.57;8.68;;;8.40;73.50;;;;;;5030835;28;20209;-39
2021/03/08 12:28:26;;;;;;;10.98;9.93;;;8.60;72.60;;;;;;5031382;28;20209;-40
2021/03/08 12:30:57;;;;;;;9.88;8.98;;;8.70;71.00;;;;;;5031263;28;20714;-39
2021/03/08 12:33:25;;;;;;;9.98;8.75;;;8.80;69.60;;;;;;5031139;28;20329;-39
2021/03/08 12:35:52;;;;;;;11.02;8.20;;;8.70;68.80;;;;;;5033345;28;20219;-40
2021/03/08 12:38:39;;;;;;;7.68;6.97;;;8.50;67.20;;;;;;5035198;28;20216;-40
2021/03/08 12:41:06;;;;;;;9.65;8.65;;;8.50;68.00;;;;;;5034778;28;20299;-39
2021/03/08 12:43:33;;;;;;;10.98;9.88;;;8.60;67.60;;;;;;5034778;28;20209;-39
2021/03/08 12:46:01;;;;;;;9.73;8.73;;;8.70;67.70;;;;;;5034916;28;20296;-38
2021/03/08 12:48:29;;;;;;;9.80;8.60;;;8.80;66.60;;;;;;5034688;28;20208;-38
2021/03/08 12:50:56;;;;;;;8.93;8.02;;;8.80;66.70;;;;;;5034589;28;20697;-38
2021/03/08 12:53:23;;;;;;;12.68;11.48;;;8.80;67.30;;;;;;5034583;28;20308;-43
2021/03/08 12:55:50;;;;;;;9.57;8.68;;;8.90;67.10;;;;;;5034657;28;20287;-41
2021/03/08 12:58:18;;;;;;;9.52;8.65;;;9.00;66.90;;;;;;5034963;28;20295;-42
2021/03/08 13:00:45;;;;;;;9.77;8.88;;;9.00;66.70;;;;;;5034904;28;20218;-42
2021/03/08 13:03:12;;;;;;;9.38;8.55;;;9.00;66.60;;;;;;5034435;28;20335;-41